createdAt,value
2023-04-08T00:04:43.357Z,8.25
2023-04-08T00:09:45.445Z,7.97
2023-04-08T00:14:47.195Z,8.45
2023-04-08T00:19:48.861Z,8.20
2023-04-08T00:24:50.669Z,7.85
2023-04-08T00:29:52.341Z,9.15
2023-04-08T00:34:54.099Z,9.07
2023-04-08T00:39:55.729Z,8.48
2023-04-08T00:44:57.379Z,8.32
2023-04-08T00:49:59.210Z,8.90
2023-04-08T00:55:01.070Z,8.10
2023-04-08T01:00:07.881Z,8.05
2023-04-08T01:10:22.288Z,9.32
2023-04-08T01:15:29.769Z,9.60
2023-04-08T01:20:32.025Z,8.38
2023-04-08T01:25:36.716Z,8.98
2023-04-08T01:30:40.606Z,9.60
2023-04-08T01:35:42.775Z,9.35
2023-04-08T01:40:45.041Z,8.88
2023-04-08T01:45:49.723Z,9.18
2023-04-08T01:50:53.000Z,8.77
2023-04-08T01:56:03.977Z,9.82
2023-04-08T02:01:12.652Z,9.13
2023-04-08T02:06:14.495Z,9.68
2023-04-08T02:11:16.494Z,8.43
2023-04-08T02:17:02.003Z,9.00
2023-04-08T02:22:09.725Z,9.30
2023-04-08T02:27:11.801Z,9.40
2023-04-08T02:32:15.482Z,8.88
2023-04-08T02:37:17.286Z,9.68
2023-04-08T02:42:18.896Z,9.85
2023-04-08T02:47:20.850Z,10.32
2023-04-08T02:52:22.533Z,9.80
2023-04-08T02:57:24.116Z,9.68
2023-04-08T03:02:25.764Z,9.40
2023-04-08T03:07:27.836Z,9.25
2023-04-08T03:12:29.492Z,10.27
2023-04-08T03:17:33.976Z,9.90
2023-04-08T03:22:36.657Z,9.43
2023-04-08T03:27:38.308Z,9.25
2023-04-08T03:32:40.069Z,9.02
2023-04-08T03:37:41.725Z,8.93
2023-04-08T03:42:43.454Z,8.77
2023-04-08T03:47:45.066Z,9.07
2023-04-08T03:52:46.691Z,8.85
2023-04-08T03:57:48.393Z,9.27
2023-04-08T04:02:50.034Z,9.52
2023-04-08T04:07:51.765Z,8.90
2023-04-08T04:12:53.369Z,9.65
2023-04-08T04:17:54.996Z,9.15
2023-04-08T04:22:56.591Z,9.55
2023-04-08T04:27:58.304Z,9.55
2023-04-08T04:32:59.928Z,10.02
2023-04-08T04:38:01.704Z,9.40
2023-04-08T04:43:03.296Z,9.07
2023-04-08T04:48:05.197Z,9.27
2023-04-08T04:53:06.825Z,7.85
2023-04-08T04:58:08.427Z,9.02
2023-04-08T05:03:10.646Z,9.13
2023-04-08T05:08:12.500Z,8.68
2023-04-08T05:13:14.170Z,8.88
2023-04-08T05:18:15.777Z,8.95
2023-04-08T05:23:17.493Z,8.52
2023-04-08T05:28:19.090Z,9.13
2023-04-08T05:33:21.186Z,10.15
2023-04-08T05:38:22.791Z,9.30
2023-04-08T05:43:24.722Z,10.38
2023-04-08T05:48:26.340Z,9.82
2023-04-08T05:53:28.095Z,10.23
2023-04-08T05:58:29.708Z,9.77
2023-04-08T06:03:31.410Z,10.55
2023-04-08T06:08:33.062Z,10.88
2023-04-08T06:13:34.633Z,10.93
2023-04-08T06:18:36.226Z,11.52
2023-04-08T06:23:39.038Z,12.32
2023-04-08T06:28:40.934Z,10.90
2023-04-08T06:33:42.524Z,11.38
2023-04-08T06:38:44.083Z,11.75
2023-04-08T06:43:45.691Z,10.80
2023-04-08T06:48:47.347Z,10.88
2023-04-08T06:53:49.193Z,10.75
2023-04-08T06:58:51.190Z,10.65
2023-04-08T07:03:53.013Z,10.45
2023-04-08T07:08:54.661Z,10.90
2023-04-08T07:13:56.321Z,9.98
2023-04-08T07:18:58.543Z,11.27
2023-04-08T07:24:00.308Z,11.70
2023-04-08T07:29:01.882Z,11.98
2023-04-08T07:34:03.537Z,12.38
2023-04-08T07:39:05.601Z,12.48
2023-04-08T07:44:07.681Z,11.73
2023-04-08T07:49:10.158Z,11.95
2023-04-08T07:54:12.658Z,12.52
2023-04-08T07:59:14.245Z,13.13
2023-04-08T08:04:16.236Z,12.90
2023-04-08T08:09:17.932Z,12.20
2023-04-08T08:14:19.591Z,10.18
2023-04-08T08:19:21.505Z,10.18
2023-04-08T08:24:23.176Z,9.82
2023-04-08T08:29:25.118Z,10.05
2023-04-08T08:34:27.152Z,10.25
2023-04-08T08:39:28.810Z,9.95
2023-04-08T08:44:30.912Z,11.05
2023-04-08T08:49:32.516Z,10.57
2023-04-08T08:54:34.305Z,10.88
2023-04-08T08:59:36.139Z,10.13
2023-04-08T09:04:37.826Z,9.88
2023-04-08T09:09:52.627Z,8.82
2023-04-08T09:15:07.737Z,7.78
2023-04-08T09:20:13.877Z,7.22
2023-04-08T09:25:28.565Z,7.22
2023-04-08T09:30:32.537Z,6.82
2023-04-08T09:35:34.227Z,6.43
2023-04-08T09:40:37.325Z,7.93
2023-04-08T09:45:42.807Z,7.65
2023-04-08T09:50:49.658Z,6.90
2023-04-08T10:00:55.728Z,7.07
2023-04-08T10:06:01.354Z,7.15
2023-04-08T10:11:03.067Z,7.45
2023-04-08T10:16:20.959Z,7.32
2023-04-08T10:21:48.693Z,7.32
2023-04-08T10:26:50.334Z,6.68
2023-04-08T10:31:52.010Z,7.57
2023-04-08T10:36:55.801Z,6.35
2023-04-08T10:41:57.611Z,6.47
2023-04-08T10:47:01.278Z,6.80
2023-04-08T10:52:07.473Z,7.13
2023-04-08T10:57:09.180Z,6.45
2023-04-08T11:02:15.426Z,6.65
2023-04-08T11:07:20.167Z,6.75
2023-04-08T11:12:22.730Z,8.25
2023-04-08T11:17:24.386Z,7.20
2023-04-08T11:22:27.338Z,7.10
2023-04-08T11:27:29.674Z,7.50
2023-04-08T11:32:31.560Z,7.47
2023-04-08T11:37:42.627Z,8.20
2023-04-08T11:42:46.006Z,7.65
2023-04-08T11:47:49.092Z,8.35
2023-04-08T11:52:52.685Z,7.47
2023-04-08T11:57:55.606Z,7.90
2023-04-08T12:02:57.403Z,8.18
2023-04-08T12:07:59.292Z,8.07
2023-04-08T12:13:01.159Z,7.72
2023-04-08T12:18:02.866Z,7.85
2023-04-08T12:23:04.469Z,8.52
2023-04-08T12:28:06.122Z,8.45
2023-04-08T12:33:07.769Z,8.25
2023-04-08T12:38:09.454Z,8.15
2023-04-08T12:43:11.914Z,7.60
2023-04-08T12:48:13.957Z,8.18
2023-04-08T12:53:15.766Z,6.85
2023-04-08T12:58:17.424Z,7.30
2023-04-08T13:03:19.162Z,7.43
2023-04-08T13:08:20.782Z,6.68
2023-04-08T13:13:22.514Z,7.32
2023-04-08T13:18:24.189Z,7.70
2023-04-08T13:23:26.056Z,7.82
2023-04-08T13:28:27.645Z,7.43
2023-04-08T13:33:29.236Z,7.13
2023-04-08T13:38:30.876Z,6.93
2023-04-08T13:43:32.646Z,6.32
2023-04-08T13:48:34.244Z,7.57
2023-04-08T13:53:35.917Z,7.45
2023-04-08T13:58:37.921Z,7.60
2023-04-08T14:03:39.510Z,7.38
2023-04-08T14:08:41.578Z,8.38
2023-04-08T14:13:43.164Z,7.35
2023-04-08T14:18:44.749Z,7.50
2023-04-08T14:23:46.826Z,7.75
2023-04-08T14:28:49.024Z,6.88
2023-04-08T14:33:50.925Z,6.70
2023-04-08T14:38:53.019Z,7.15
2023-04-08T14:43:55.032Z,7.18
2023-04-08T14:48:56.923Z,7.30
2023-04-08T14:53:58.703Z,6.65
2023-04-08T14:59:00.260Z,6.90
2023-04-08T15:04:02.226Z,6.97
2023-04-08T15:09:03.909Z,7.70
2023-04-08T15:14:05.540Z,7.13
2023-04-08T15:19:07.202Z,7.40
2023-04-08T15:24:08.778Z,7.18
2023-04-08T15:29:10.360Z,7.72
2023-04-08T15:34:11.968Z,8.32
2023-04-08T15:39:13.592Z,7.90
2023-04-08T15:44:15.742Z,7.63
2023-04-08T15:49:17.369Z,7.10
2023-04-08T15:54:19.298Z,6.97
2023-04-08T15:59:21.164Z,6.60
2023-04-08T16:04:23.094Z,6.82
2023-04-08T16:09:27.073Z,6.57
2023-04-08T16:14:31.076Z,6.20
2023-04-08T16:19:32.742Z,5.93
2023-04-08T16:24:37.416Z,5.45
2023-04-08T16:29:39.080Z,5.00
2023-04-08T16:34:40.661Z,4.55
2023-04-08T16:39:42.356Z,4.20
2023-04-08T16:44:43.956Z,4.30
2023-04-08T16:49:45.592Z,4.05
2023-04-08T16:54:47.626Z,3.75
2023-04-08T16:59:49.199Z,3.75
2023-04-08T17:04:51.032Z,4.20
2023-04-08T17:09:52.790Z,3.53
2023-04-08T17:14:54.361Z,3.88
2023-04-08T17:19:55.943Z,4.00
2023-04-08T17:24:57.584Z,3.50
2023-04-08T17:29:59.271Z,2.80
2023-04-08T17:35:01.213Z,3.42
2023-04-08T17:40:03.086Z,3.53
2023-04-08T17:45:05.614Z,2.90
2023-04-08T17:50:09.285Z,3.10
2023-04-08T17:55:13.818Z,2.90
2023-04-08T18:00:16.432Z,3.33
2023-04-08T18:05:18.212Z,3.65
2023-04-08T18:10:19.917Z,3.83
2023-04-08T18:15:21.592Z,3.70
2023-04-08T18:20:23.181Z,3.63
2023-04-08T18:25:24.860Z,4.20
2023-04-08T18:30:26.877Z,4.18
2023-04-08T18:35:28.506Z,4.20
2023-04-08T18:40:31.427Z,4.82
2023-04-08T18:45:33.198Z,4.90
2023-04-08T18:50:35.032Z,5.47
2023-04-08T18:55:38.734Z,5.43
2023-04-08T19:00:43.863Z,5.68
2023-04-08T19:05:46.594Z,5.75
2023-04-08T19:10:48.136Z,6.22
2023-04-08T19:15:50.083Z,6.57
2023-04-08T19:20:51.862Z,6.30
2023-04-08T19:25:53.558Z,6.10
2023-04-08T19:30:55.132Z,7.20
2023-04-08T19:35:57.499Z,6.93
2023-04-08T19:40:59.195Z,6.75
2023-04-08T19:46:00.858Z,6.95
2023-04-08T19:51:03.425Z,6.90
2023-04-08T19:56:05.091Z,6.20
2023-04-08T20:01:07.517Z,5.82
2023-04-08T20:06:09.296Z,5.32
2023-04-08T20:11:11.409Z,5.07
2023-04-08T20:16:13.511Z,5.55
2023-04-08T20:21:15.204Z,5.95
2023-04-08T20:26:16.886Z,5.97
2023-04-08T20:31:19.328Z,5.43
2023-04-08T20:36:22.188Z,5.50
2023-04-08T20:41:24.489Z,5.93
2023-04-08T20:46:26.222Z,5.82
2023-04-08T20:51:27.882Z,5.88
2023-04-08T20:56:29.609Z,5.28
2023-04-08T21:01:31.549Z,4.85
2023-04-08T21:06:33.197Z,5.78
2023-04-08T21:11:34.894Z,5.88
2023-04-08T21:16:36.596Z,5.65
2023-04-08T21:21:38.268Z,6.05
2023-04-08T21:26:39.900Z,6.20
2023-04-08T21:31:42.062Z,6.20
2023-04-08T21:36:43.711Z,6.15
2023-04-08T21:41:45.307Z,6.50
2023-04-08T21:46:49.103Z,6.40
2023-04-08T21:51:50.678Z,6.07
2023-04-08T21:56:52.275Z,5.97
2023-04-08T22:01:54.156Z,5.78
2023-04-08T22:06:56.320Z,5.85
2023-04-08T22:11:57.945Z,6.20
2023-04-08T22:16:59.738Z,5.43
2023-04-08T22:22:01.440Z,6.45
2023-04-08T22:27:03.864Z,6.05
2023-04-08T22:32:05.849Z,4.97
2023-04-08T22:37:07.422Z,4.30
2023-04-08T22:42:09.001Z,5.68
2023-04-08T22:47:10.950Z,4.75
2023-04-08T22:52:12.547Z,4.82
2023-04-08T22:57:14.207Z,4.80
2023-04-08T23:02:15.881Z,4.30
2023-04-08T23:07:17.567Z,4.97
2023-04-08T23:12:19.178Z,4.82
2023-04-08T23:17:20.999Z,5.70
2023-04-08T23:22:22.606Z,5.47
2023-04-08T23:27:24.187Z,5.25
2023-04-08T23:32:26.467Z,5.78
2023-04-08T23:37:29.010Z,5.72
2023-04-08T23:42:30.688Z,6.80
2023-04-08T23:47:32.329Z,6.70
2023-04-08T23:52:33.932Z,6.35
2023-04-08T23:57:35.564Z,7.15
